Time;durP1;ratioP1;P1;durP2;ratioP2;P2;SDS_P1;SDS_P2;PMS_P1;PMS_P2;Temp;Humidity;BMP_temperature;BMP_pressure;BME280_temperature;BME280_humidity;BME280_pressure;Samples;Min_cycle;Max_cycle;Signal;HPM_P1;HPM_P2
2024/03/15 00:00:32;;;;;;;;;;;8.90;99.90;;;;;;2059224;28;19918;-80
2024/03/15 00:01:33;;;;;;;;;;;8.80;99.90;;;;;;2067136;28;19920;-81
2024/03/15 00:02:34;;;;;;;;;;;8.80;99.90;;;;;;2067798;28;19947;-80
2024/03/15 00:03:34;;;;;;;;;;;8.80;99.90;;;;;;2067113;28;19922;-80
2024/03/15 00:04:35;;;;;;;;;;;8.80;99.90;;;;;;2067371;28;19921;-79
2024/03/15 00:05:35;;;;;;;;;;;8.80;99.90;;;;;;2068332;28;19956;-80
2024/03/15 00:06:36;;;;;;;;;;;8.80;99.90;;;;;;2067725;28;19936;-82
2024/03/15 00:07:36;;;;;;;;;;;8.80;99.90;;;;;;2067496;28;19921;-79
2024/03/15 00:08:39;;;;;;;;;;;8.80;99.90;;;;;;2067117;28;19925;-80
2024/03/15 00:09:39;;;;;;;;;;;8.80;99.90;;;;;;2067280;28;19944;-78
2024/03/15 00:10:40;;;;;;;;;;;8.80;99.90;;;;;;2068203;28;20011;-81
2024/03/15 00:11:40;;;;;;;;;;;8.80;99.90;;;;;;2067743;28;19917;-80
2024/03/15 00:12:41;;;;;;;;;;;8.80;99.90;;;;;;2067652;28;19924;-80
2024/03/15 00:13:44;;;;;;;;;;;8.80;99.90;;;;;;2067401;28;19913;-81
2024/03/15 00:14:45;;;;;;;;;;;8.80;99.90;;;;;;2067080;28;19923;-80
2024/03/15 00:15:45;;;;;;;;;;;8.70;99.90;;;;;;2068043;28;19921;-80
2024/03/15 00:16:46;;;;;;;;;;;8.70;99.90;;;;;;2068290;28;19921;-79
2024/03/15 00:17:46;;;;;;;;;;;8.70;99.90;;;;;;2067909;28;19925;-81
2024/03/15 00:18:47;;;;;;;;;;;8.70;99.90;;;;;;2068259;28;20392;-79
2024/03/15 00:19:47;;;;;;;;;;;8.70;99.90;;;;;;2067727;28;19944;-80
2024/03/15 00:20:48;;;;;;;;;;;8.70;99.90;;;;;;2067266;28;19983;-80
2024/03/15 00:21:48;;;;;;;;;;;8.70;99.90;;;;;;2068067;28;19949;-79
2024/03/15 00:22:52;;;;;;;;;;;8.60;99.90;;;;;;2069707;28;19945;-78
2024/03/15 00:23:52;;;;;;;;;;;8.60;99.90;;;;;;2067223;28;20023;-79
2024/03/15 00:24:53;;;;;;;;;;;8.60;99.90;;;;;;2066945;28;19925;-81
2024/03/15 00:25:53;;;;;;;;;;;8.60;99.90;;;;;;2067738;28;20392;-78
2024/03/15 00:26:54;;;;;;;;;;;8.60;99.90;;;;;;2068477;28;19939;-79
2024/03/15 00:27:54;;;;;;;;;;;8.60;99.90;;;;;;2067221;28;19940;-80
2024/03/15 00:28:55;;;;;;;;;;;8.50;99.90;;;;;;2067473;28;20384;-78
2024/03/15 00:29:55;;;;;;;;;;;8.50;99.90;;;;;;2067333;28;19959;-80
2024/03/15 00:30:56;;;;;;;;;;;8.50;99.90;;;;;;2065565;28;19932;-73
2024/03/15 00:31:56;;;;;;;;;;;8.50;99.90;;;;;;2067413;28;20016;-80
2024/03/15 00:32:57;;;;;;;;;;;8.50;99.90;;;;;;2067606;28;19957;-79
2024/03/15 00:33:58;;;;;;;;;;;8.50;99.90;;;;;;2058707;28;20284;-78
2024/03/15 00:34:59;;;;;;;;;;;8.50;99.90;;;;;;2062946;28;20004;-81
2024/03/15 00:35:59;;;;;;;;;;;8.50;99.90;;;;;;2058592;28;20975;-79
2024/03/15 00:37:01;;;;;;;;;;;8.50;99.90;;;;;;2067056;28;20035;-79
2024/03/15 00:38:02;;;;;;;;;;;8.50;99.90;;;;;;2066701;28;19921;-79
2024/03/15 00:39:03;;;;;;;;;;;8.50;99.90;;;;;;2066744;28;19920;-80
2024/03/15 00:40:04;;;;;;;;;;;8.50;99.90;;;;;;2067647;28;20334;-79
2024/03/15 00:41:04;;;;;;;;;;;8.50;99.90;;;;;;2066699;28;19933;-78
2024/03/15 00:42:05;;;;;;;;;;;8.40;99.90;;;;;;2066858;28;20056;-78
2024/03/15 00:43:05;;;;;;;;;;;8.40;99.90;;;;;;2067405;28;20003;-79
2024/03/15 00:44:06;;;;;;;;;;;8.40;99.90;;;;;;2066809;28;20467;-79
2024/03/15 00:45:07;;;;;;;;;;;8.40;99.90;;;;;;2066854;28;20094;-79
2024/03/15 00:46:08;;;;;;;;;;;8.40;99.90;;;;;;2067358;28;19913;-78
2024/03/15 00:47:09;;;;;;;;;;;8.40;99.90;;;;;;2067390;28;20008;-79
2024/03/15 00:48:09;;;;;;;;;;;8.30;99.90;;;;;;2068425;28;19992;-79
2024/03/15 00:49:10;;;;;;;;;;;8.30;99.90;;;;;;2068372;28;19969;-79
2024/03/15 00:50:11;;;;;;;;;;;8.30;99.90;;;;;;2068420;28;19922;-78
2024/03/15 00:51:13;;;;;;;;;;;8.30;99.90;;;;;;2074336;28;20208;-78
2024/03/15 00:52:13;;;;;;;;;;;8.30;99.90;;;;;;2071208;28;20367;-79
2024/03/15 00:53:13;;;;;;;;;;;8.30;99.90;;;;;;2070767;28;19967;-80
2024/03/15 00:54:14;;;;;;;;;;;8.20;99.90;;;;;;2071407;28;20298;-78
2024/03/15 00:55:15;;;;;;;;;;;8.20;99.90;;;;;;2065353;28;19968;-78
2024/03/15 00:56:16;;;;;;;;;;;8.20;99.90;;;;;;2065842;28;19913;-79
2024/03/15 00:57:16;;;;;;;;;;;8.20;99.90;;;;;;2070498;28;19956;-77
2024/03/15 00:58:18;;;;;;;;;;;8.20;99.90;;;;;;2071144;28;19932;-79
2024/03/15 00:59:20;;;;;;;;;;;8.20;99.90;;;;;;2070233;28;19920;-78
2024/03/15 01:00:21;;;;;;;;;;;8.20;99.90;;;;;;2070469;28;19918;-79
2024/03/15 01:01:21;;;;;;;;;;;8.10;99.90;;;;;;2071488;28;19918;-78
2024/03/15 01:02:22;;;;;;;;;;;8.10;99.90;;;;;;2070132;28;19921;-79
2024/03/15 01:03:25;;;;;;;;;;;8.10;99.90;;;;;;2070009;28;19926;-79
2024/03/15 01:04:27;;;;;;;;;;;8.10;99.90;;;;;;2070899;28;20000;-78
2024/03/15 01:05:28;;;;;;;;;;;8.00;99.90;;;;;;2070503;28;19917;-79
2024/03/15 01:06:28;;;;;;;;;;;8.10;99.90;;;;;;2070519;28;19913;-79
2024/03/15 01:07:29;;;;;;;;;;;8.10;99.90;;;;;;2069911;28;19991;-79
2024/03/15 01:08:29;;;;;;;;;;;8.00;99.90;;;;;;2070302;28;19928;-79
2024/03/15 01:09:30;;;;;;;;;;;8.00;99.90;;;;;;2070437;28;20020;-79
2024/03/15 01:10:31;;;;;;;;;;;8.00;99.90;;;;;;2070598;28;19999;-80
2024/03/15 01:11:31;;;;;;;;;;;8.00;99.90;;;;;;2070717;28;19913;-79
2024/03/15 01:12:34;;;;;;;;;;;7.90;99.90;;;;;;2069718;28;20360;-80
2024/03/15 01:13:34;;;;;;;;;;;7.90;99.90;;;;;;2068990;28;19968;-80
2024/03/15 01:14:34;;;;;;;;;;;7.90;99.90;;;;;;2069502;28;19910;-79
2024/03/15 01:15:35;;;;;;;;;;;7.90;99.90;;;;;;2064018;28;19932;-79
2024/03/15 01:16:36;;;;;;;;;;;7.90;99.90;;;;;;2062157;28;19917;-81
2024/03/15 01:17:36;;;;;;;;;;;7.90;99.90;;;;;;2067589;28;19917;-81
2024/03/15 01:18:38;;;;;;;;;;;7.90;99.90;;;;;;2069069;28;20241;-79
2024/03/15 01:19:38;;;;;;;;;;;7.90;99.90;;;;;;2068307;28;19916;-81
2024/03/15 01:20:39;;;;;;;;;;;7.90;99.90;;;;;;2068642;28;19917;-79
2024/03/15 01:21:39;;;;;;;;;;;7.90;99.90;;;;;;2068917;28;20383;-79
2024/03/15 01:22:41;;;;;;;;;;;7.90;99.90;;;;;;2067742;28;19917;-81
2024/03/15 01:23:41;;;;;;;;;;;7.90;99.90;;;;;;2064328;28;20480;-80
2024/03/15 01:24:42;;;;;;;;;;;7.90;99.90;;;;;;2068267;28;19917;-79
2024/03/15 01:25:42;;;;;;;;;;;7.90;99.90;;;;;;2060011;28;19918;-79
2024/03/15 01:26:43;;;;;;;;;;;7.90;99.90;;;;;;2068628;28;20364;-79
2024/03/15 01:27:43;;;;;;;;;;;7.80;99.90;;;;;;2068832;28;19920;-79
2024/03/15 01:28:44;;;;;;;;;;;7.80;99.90;;;;;;2069010;28;20977;-79
2024/03/15 01:29:44;;;;;;;;;;;7.80;99.90;;;;;;2068998;28;19917;-78
2024/03/15 01:30:45;;;;;;;;;;;7.80;99.90;;;;;;2068569;28;19922;-79
2024/03/15 01:31:45;;;;;;;;;;;7.70;99.90;;;;;;2065154;28;19913;-78
2024/03/15 01:32:46;;;;;;;;;;;7.70;99.90;;;;;;2069322;28;19914;-79
2024/03/15 01:33:46;;;;;;;;;;;7.70;99.90;;;;;;2069003;28;19921;-79
2024/03/15 01:34:47;;;;;;;;;;;7.70;99.90;;;;;;2068982;28;19917;-79
2024/03/15 01:35:47;;;;;;;;;;;7.70;99.90;;;;;;2068449;28;19924;-80
2024/03/15 01:36:48;;;;;;;;;;;7.70;99.90;;;;;;2068105;28;19920;-80
2024/03/15 01:37:48;;;;;;;;;;;7.70;99.90;;;;;;2068586;28;20423;-79
2024/03/15 01:38:49;;;;;;;;;;;7.60;99.90;;;;;;2068745;28;20316;-79
2024/03/15 01:39:49;;;;;;;;;;;7.70;99.90;;;;;;2068619;28;19924;-78
2024/03/15 01:40:50;;;;;;;;;;;7.60;99.90;;;;;;2068732;28;19924;-79
2024/03/15 01:41:50;;;;;;;;;;;7.60;99.90;;;;;;2060049;28;19997;-79
2024/03/15 01:42:52;;;;;;;;;;;7.60;99.90;;;;;;2059914;28;19918;-81
2024/03/15 01:43:52;;;;;;;;;;;7.60;99.90;;;;;;2068575;28;19955;-81
2024/03/15 01:44:56;;;;;;;;;;;7.60;99.90;;;;;;2068028;28;19924;-80
2024/03/15 01:45:56;;;;;;;;;;;7.60;99.90;;;;;;2068271;28;19914;-80
2024/03/15 01:46:59;;;;;;;;;;;7.60;99.90;;;;;;2067983;28;19972;-79
2024/03/15 01:48:00;;;;;;;;;;;7.50;99.90;;;;;;2067918;28;19923;-79
2024/03/15 01:49:01;;;;;;;;;;;7.50;99.90;;;;;;2068709;28;20396;-80
2024/03/15 01:50:02;;;;;;;;;;;7.50;99.90;;;;;;2064882;28;19913;-80
2024/03/15 01:51:03;;;;;;;;;;;7.50;99.90;;;;;;2067748;28;19918;-80
2024/03/15 01:52:05;;;;;;;;;;;7.50;99.90;;;;;;2067939;28;19913;-80
2024/03/15 01:53:05;;;;;;;;;;;7.50;99.90;;;;;;2068771;28;19932;-80
2024/03/15 01:54:07;;;;;;;;;;;7.50;99.90;;;;;;2068489;28;20012;-79
2024/03/15 01:55:08;;;;;;;;;;;7.40;99.90;;;;;;2068530;28;19924;-79
2024/03/15 01:56:09;;;;;;;;;;;7.40;99.90;;;;;;2067892;28;19920;-80
2024/03/15 01:57:10;;;;;;;;;;;7.40;99.90;;;;;;2059750;28;20291;-80
2024/03/15 01:58:10;;;;;;;;;;;7.40;99.90;;;;;;2059749;28;19914;-80
2024/03/15 01:59:11;;;;;;;;;;;7.30;99.90;;;;;;2067480;28;19914;-78
2024/03/15 02:00:13;;;;;;;;;;;7.40;99.90;;;;;;2068415;28;19910;-79
2024/03/15 02:01:13;;;;;;;;;;;7.30;99.90;;;;;;2068332;28;19918;-79
2024/03/15 02:02:14;;;;;;;;;;;7.30;99.90;;;;;;2067439;28;20071;-81
2024/03/15 02:03:15;;;;;;;;;;;7.30;99.90;;;;;;2067566;28;19966;-81
2024/03/15 02:04:15;;;;;;;;;;;7.30;99.90;;;;;;2068613;28;20593;-80
2024/03/15 02:05:16;;;;;;;;;;;7.30;99.90;;;;;;2068313;28;19918;-79
2024/03/15 02:06:16;;;;;;;;;;;7.30;99.90;;;;;;2068341;28;19913;-78
2024/03/15 02:07:17;;;;;;;;;;;7.30;99.90;;;;;;2068699;28;19943;-78
2024/03/15 02:08:18;;;;;;;;;;;7.30;99.90;;;;;;2068460;28;20077;-78
2024/03/15 02:09:20;;;;;;;;;;;7.30;99.90;;;;;;2067950;28;19914;-80
2024/03/15 02:10:20;;;;;;;;;;;7.20;99.90;;;;;;2070649;28;19921;-78
2024/03/15 02:11:21;;;;;;;;;;;7.20;99.90;;;;;;2077533;28;20095;-79
2024/03/15 02:12:23;;;;;;;;;;;7.20;99.90;;;;;;2075519;28;19943;-79
2024/03/15 02:13:23;;;;;;;;;;;7.20;99.90;;;;;;2068466;28;20395;-79
2024/03/15 02:14:24;;;;;;;;;;;7.20;99.90;;;;;;2068286;28;20446;-79
2024/03/15 02:15:24;;;;;;;;;;;7.20;99.90;;;;;;2068084;28;20354;-79
2024/03/15 02:16:26;;;;;;;;;;;7.20;99.90;;;;;;2068470;28;20244;-79
2024/03/15 02:17:27;;;;;;;;;;;7.20;99.90;;;;;;2068208;28;19914;-78
2024/03/15 02:18:27;;;;;;;;;;;7.20;99.90;;;;;;2067434;28;19960;-76
2024/03/15 02:19:28;;;;;;;;;;;7.20;99.90;;;;;;2059660;28;19925;-77
2024/03/15 02:20:28;;;;;;;;;;;7.20;99.90;;;;;;2067152;28;20155;-76
2024/03/15 02:21:29;;;;;;;;;;;7.20;99.90;;;;;;2068091;28;19975;-77
2024/03/15 02:22:29;;;;;;;;;;;7.20;99.90;;;;;;2067666;28;20035;-78
2024/03/15 02:23:30;;;;;;;;;;;7.10;99.90;;;;;;2067307;28;19965;-77
2024/03/15 02:24:30;;;;;;;;;;;7.20;99.90;;;;;;2059078;28;19928;-77
2024/03/15 02:25:31;;;;;;;;;;;7.10;99.90;;;;;;2067645;28;20393;-78
2024/03/15 02:26:32;;;;;;;;;;;7.10;99.90;;;;;;2067154;28;20632;-77
2024/03/15 02:27:33;;;;;;;;;;;7.10;99.90;;;;;;2062511;28;20311;-77
2024/03/15 02:28:34;;;;;;;;;;;7.10;99.90;;;;;;2059582;28;19920;-78
2024/03/15 02:29:35;;;;;;;;;;;7.10;99.90;;;;;;2058982;28;20227;-74
2024/03/15 02:30:35;;;;;;;;;;;7.10;99.90;;;;;;2066826;28;19913;-75
2024/03/15 02:31:36;;;;;;;;;;;7.10;99.90;;;;;;2066387;28;19984;-74
2024/03/15 02:32:38;;;;;;;;;;;7.10;99.90;;;;;;2068052;28;19913;-75
2024/03/15 02:33:38;;;;;;;;;;;7.10;99.90;;;;;;2067354;28;20277;-76
2024/03/15 02:34:39;;;;;;;;;;;7.10;99.90;;;;;;2067389;28;19924;-76
2024/03/15 02:35:40;;;;;;;;;;;7.00;99.90;;;;;;2067462;28;20343;-77
2024/03/15 02:36:41;;;;;;;;;;;7.00;99.90;;;;;;2067269;28;19910;-77
2024/03/15 02:37:41;;;;;;;;;;;7.00;99.90;;;;;;2059483;28;20407;-76
2024/03/15 02:38:42;;;;;;;;;;;7.00;99.90;;;;;;2059251;28;20005;-77
2024/03/15 02:39:42;;;;;;;;;;;7.00;99.90;;;;;;2067625;28;19918;-76
2024/03/15 02:40:43;;;;;;;;;;;7.00;99.90;;;;;;2067829;28;19914;-76
2024/03/15 02:41:43;;;;;;;;;;;7.00;99.90;;;;;;2068303;28;19914;-76
2024/03/15 02:42:46;;;;;;;;;;;7.00;99.90;;;;;;2068235;28;19937;-76
2024/03/15 02:43:46;;;;;;;;;;;6.90;99.90;;;;;;2067656;28;19925;-77
2024/03/15 02:44:47;;;;;;;;;;;7.00;99.90;;;;;;2067660;28;19921;-79
2024/03/15 02:45:47;;;;;;;;;;;6.90;99.90;;;;;;2068312;28;19921;-76
2024/03/15 02:46:51;;;;;;;;;;;6.90;99.90;;;;;;2068266;28;20299;-76
2024/03/15 02:47:51;;;;;;;;;;;6.90;99.90;;;;;;2068078;28;20606;-76
2024/03/15 02:48:52;;;;;;;;;;;6.90;99.90;;;;;;2067674;28;20115;-77
2024/03/15 02:49:53;;;;;;;;;;;6.90;99.90;;;;;;2067882;28;20323;-76
2024/03/15 02:50:53;;;;;;;;;;;6.90;99.90;;;;;;2068173;28;19917;-76
2024/03/15 02:51:54;;;;;;;;;;;6.90;99.90;;;;;;2068170;28;20389;-77
2024/03/15 02:52:54;;;;;;;;;;;6.90;99.90;;;;;;2067928;28;19980;-76
2024/03/15 02:53:55;;;;;;;;;;;6.90;99.90;;;;;;2067352;28;19975;-77
2024/03/15 02:54:56;;;;;;;;;;;6.90;99.90;;;;;;2067209;28;19972;-77
2024/03/15 02:56:00;;;;;;;;;;;6.90;99.90;;;;;;2067241;28;19933;-77
2024/03/15 02:57:01;;;;;;;;;;;6.90;99.90;;;;;;2067429;28;19925;-78
2024/03/15 02:58:01;;;;;;;;;;;6.90;99.90;;;;;;2068274;28;20067;-77
2024/03/15 02:59:02;;;;;;;;;;;6.90;99.90;;;;;;2067291;28;19917;-77
2024/03/15 03:00:02;;;;;;;;;;;6.90;99.90;;;;;;2067290;28;20016;-78
2024/03/15 03:01:03;;;;;;;;;;;6.90;99.90;;;;;;2067140;28;19929;-78
2024/03/15 03:02:04;;;;;;;;;;;6.90;99.90;;;;;;2067530;28;19913;-77
2024/03/15 03:03:05;;;;;;;;;;;6.90;99.90;;;;;;2058936;28;20335;-77
2024/03/15 03:04:06;;;;;;;;;;;6.90;99.90;;;;;;2067231;28;20354;-76
2024/03/15 03:05:07;;;;;;;;;;;6.90;99.90;;;;;;2068012;28;19917;-77
2024/03/15 03:06:07;;;;;;;;;;;6.90;99.90;;;;;;2067814;28;19926;-77
2024/03/15 03:07:08;;;;;;;;;;;6.90;99.90;;;;;;2063029;28;19956;-78
2024/03/15 03:08:09;;;;;;;;;;;6.90;99.90;;;;;;2059422;28;19989;-77
2024/03/15 03:09:09;;;;;;;;;;;6.90;99.90;;;;;;2064067;28;19913;-77
2024/03/15 03:10:10;;;;;;;;;;;6.90;99.90;;;;;;2066779;28;19917;-77
2024/03/15 03:11:11;;;;;;;;;;;6.90;99.90;;;;;;2066598;28;19914;-78
2024/03/15 03:12:13;;;;;;;;;;;6.90;99.90;;;;;;2059111;28;19924;-76
2024/03/15 03:13:14;;;;;;;;;;;6.90;99.90;;;;;;2059277;28;19917;-77
2024/03/15 03:14:15;;;;;;;;;;;6.90;99.90;;;;;;2067147;28;19953;-78
2024/03/15 03:15:16;;;;;;;;;;;6.90;99.90;;;;;;2067063;28;19920;-77
2024/03/15 03:16:22;;;;;;;;;;;6.90;99.90;;;;;;2071696;28;19917;-77
2024/03/15 03:17:22;;;;;;;;;;;6.90;99.90;;;;;;2068097;28;19914;-76
2024/03/15 03:18:23;;;;;;;;;;;6.90;99.90;;;;;;2063914;28;19945;-77
2024/03/15 03:19:23;;;;;;;;;;;6.90;99.90;;;;;;2067122;28;19918;-75
2024/03/15 03:20:25;;;;;;;;;;;6.90;99.90;;;;;;2067313;28;20485;-76
2024/03/15 03:21:28;;;;;;;;;;;6.90;99.90;;;;;;2054979;28;19922;-76
2024/03/15 03:22:29;;;;;;;;;;;6.90;99.90;;;;;;2067005;28;20449;-76
2024/03/15 03:23:29;;;;;;;;;;;6.90;99.90;;;;;;2067863;28;19929;-77
2024/03/15 03:24:30;;;;;;;;;;;6.90;99.90;;;;;;2066956;28;20429;-76
2024/03/15 03:25:31;;;;;;;;;;;6.90;99.90;;;;;;2067089;28;19918;-75
2024/03/15 03:26:32;;;;;;;;;;;6.90;99.90;;;;;;2067147;28;19937;-76
2024/03/15 03:27:32;;;;;;;;;;;6.90;99.90;;;;;;2067838;28;19971;-76
2024/03/15 03:28:32;;;;;;;;;;;6.90;99.90;;;;;;2067695;28;19924;-76
2024/03/15 03:29:33;;;;;;;;;;;6.90;99.90;;;;;;2067776;28;19914;-76
2024/03/15 03:30:33;;;;;;;;;;;6.90;99.90;;;;;;2067446;28;19917;-76
2024/03/15 03:31:34;;;;;;;;;;;6.90;99.90;;;;;;2065885;28;20432;-76
2024/03/15 03:32:39;;;;;;;;;;;6.90;99.90;;;;;;2067721;28;20454;-77
2024/03/15 03:33:40;;;;;;;;;;;6.90;99.90;;;;;;2064541;28;19914;-76
2024/03/15 03:34:40;;;;;;;;;;;6.90;99.90;;;;;;2069728;28;20333;-77
2024/03/15 03:35:41;;;;;;;;;;;6.90;99.90;;;;;;2067871;28;19917;-77
2024/03/15 03:36:42;;;;;;;;;;;6.90;99.90;;;;;;2067567;28;20445;-77
2024/03/15 03:37:43;;;;;;;;;;;6.90;99.90;;;;;;2067853;28;19914;-78
2024/03/15 03:38:44;;;;;;;;;;;6.90;99.90;;;;;;2067140;28;19918;-76
2024/03/15 03:39:46;;;;;;;;;;;6.90;99.90;;;;;;2062527;28;19913;-76
2024/03/15 03:40:46;;;;;;;;;;;6.90;99.90;;;;;;2058938;28;19918;-76
2024/03/15 03:41:48;;;;;;;;;;;6.90;99.90;;;;;;2058948;28;19921;-76
2024/03/15 03:42:48;;;;;;;;;;;6.90;99.90;;;;;;2067640;28;19995;-76
2024/03/15 03:43:49;;;;;;;;;;;6.90;99.90;;;;;;2066988;28;19921;-76
2024/03/15 03:44:49;;;;;;;;;;;6.90;99.90;;;;;;2064208;28;19917;-77
2024/03/15 03:45:50;;;;;;;;;;;6.90;99.90;;;;;;2067903;28;20010;-77
2024/03/15 03:46:51;;;;;;;;;;;6.90;99.90;;;;;;2066824;28;20085;-76
2024/03/15 03:47:52;;;;;;;;;;;6.90;99.90;;;;;;2071977;28;19921;-77
2024/03/15 03:48:52;;;;;;;;;;;6.90;99.90;;;;;;2075129;28;20226;-76
2024/03/15 03:49:53;;;;;;;;;;;7.00;99.90;;;;;;2059852;28;19922;-76
2024/03/15 03:50:53;;;;;;;;;;;6.90;99.90;;;;;;2061678;28;19968;-76
2024/03/15 03:51:54;;;;;;;;;;;6.90;99.90;;;;;;2066864;28;19917;-76
2024/03/15 03:52:55;;;;;;;;;;;6.90;99.90;;;;;;2066604;28;19913;-76
2024/03/15 03:53:56;;;;;;;;;;;6.90;99.90;;;;;;2066992;28;19914;-77
2024/03/15 03:54:56;;;;;;;;;;;6.90;99.90;;;;;;2067337;28;20019;-77
2024/03/15 03:55:57;;;;;;;;;;;6.90;99.90;;;;;;2067782;28;20376;-77
2024/03/15 03:56:57;;;;;;;;;;;6.90;99.90;;;;;;2067579;28;19913;-76
2024/03/15 03:57:58;;;;;;;;;;;6.90;99.90;;;;;;2066838;28;20495;-77
2024/03/15 03:58:59;;;;;;;;;;;6.90;99.90;;;;;;2067333;28;19956;-76
2024/03/15 04:00:00;;;;;;;;;;;6.90;99.90;;;;;;2067533;28;20155;-76
2024/03/15 04:01:00;;;;;;;;;;;6.90;99.90;;;;;;2067544;28;20442;-76
2024/03/15 04:02:01;;;;;;;;;;;6.90;99.90;;;;;;2067833;28;20366;-76
2024/03/15 04:03:05;;;;;;;;;;;6.90;99.90;;;;;;2066838;28;19921;-77
2024/03/15 04:04:05;;;;;;;;;;;6.90;99.90;;;;;;2066908;28;19926;-77
2024/03/15 04:05:06;;;;;;;;;;;6.90;99.90;;;;;;2067806;28;19917;-77
2024/03/15 04:06:07;;;;;;;;;;;6.90;99.90;;;;;;2066701;28;20574;-77
2024/03/15 04:07:10;;;;;;;;;;;6.90;99.90;;;;;;2058662;28;20624;-77
2024/03/15 04:08:12;;;;;;;;;;;6.90;99.90;;;;;;2059126;28;20419;-77
2024/03/15 04:09:12;;;;;;;;;;;6.90;99.90;;;;;;2066917;28;19913;-76
2024/03/15 04:10:14;;;;;;;;;;;6.90;99.90;;;;;;2067514;28;19917;-77
2024/03/15 04:11:14;;;;;;;;;;;6.90;99.90;;;;;;2067364;28;20028;-77
2024/03/15 04:12:14;;;;;;;;;;;6.90;99.90;;;;;;2067563;28;19914;-76
2024/03/15 04:13:15;;;;;;;;;;;6.90;99.90;;;;;;2067573;28;19971;-77
2024/03/15 04:14:16;;;;;;;;;;;6.90;99.90;;;;;;2066985;28;20394;-76
2024/03/15 04:15:17;;;;;;;;;;;6.90;99.90;;;;;;2066917;28;19983;-77
2024/03/15 04:16:18;;;;;;;;;;;6.90;99.90;;;;;;2067463;28;19948;-77
2024/03/15 04:17:19;;;;;;;;;;;6.90;99.90;;;;;;2067524;28;19917;-77
2024/03/15 04:18:21;;;;;;;;;;;6.90;99.90;;;;;;2062696;28;20588;-76
2024/03/15 04:19:24;;;;;;;;;;;6.90;99.90;;;;;;2063152;28;20008;-76
2024/03/15 04:20:26;;;;;;;;;;;6.90;99.90;;;;;;2067678;28;19913;-76
2024/03/15 04:21:28;;;;;;;;;;;6.90;99.90;;;;;;2067417;28;19971;-76
2024/03/15 04:22:28;;;;;;;;;;;6.90;99.90;;;;;;2069055;28;20610;-77
2024/03/15 04:23:30;;;;;;;;;;;7.00;99.90;;;;;;2068816;28;20277;-77
2024/03/15 04:24:34;;;;;;;;;;;6.90;99.90;;;;;;2068703;28;20311;-76
2024/03/15 04:25:34;;;;;;;;;;;6.90;99.90;;;;;;2069261;28;19917;-78
2024/03/15 04:26:36;;;;;;;;;;;6.90;99.90;;;;;;2069089;28;20355;-77
2024/03/15 04:27:37;;;;;;;;;;;6.90;99.90;;;;;;2068989;28;20236;-78
2024/03/15 04:28:38;;;;;;;;;;;6.90;99.90;;;;;;2069125;28;20364;-77
2024/03/15 04:29:40;;;;;;;;;;;6.90;99.90;;;;;;2069070;28;20037;-78
2024/03/15 04:30:40;;;;;;;;;;;6.90;99.90;;;;;;2068729;28;19952;-77
2024/03/15 04:31:41;;;;;;;;;;;6.90;99.90;;;;;;2064119;28;19924;-77
2024/03/15 04:32:47;;;;;;;;;;;6.90;99.90;;;;;;2068461;28;19917;-77
2024/03/15 04:33:49;;;;;;;;;;;6.90;99.90;;;;;;2068376;28;20403;-76
2024/03/15 04:34:50;;;;;;;;;;;6.90;99.90;;;;;;2068106;28;20004;-77
2024/03/15 04:35:51;;;;;;;;;;;6.90;99.90;;;;;;2068313;28;19917;-76
2024/03/15 04:36:51;;;;;;;;;;;6.90;99.90;;;;;;2068092;28;20359;-77
2024/03/15 04:37:52;;;;;;;;;;;6.80;99.90;;;;;;2068328;28;19956;-77
2024/03/15 04:38:53;;;;;;;;;;;6.90;99.90;;;;;;2066482;28;20004;-77
2024/03/15 04:39:54;;;;;;;;;;;6.90;99.90;;;;;;2068791;28;20382;-77
2024/03/15 04:40:54;;;;;;;;;;;6.90;99.90;;;;;;2064449;28;19917;-72
2024/03/15 04:41:55;;;;;;;;;;;6.90;99.90;;;;;;2059976;28;19924;-77
2024/03/15 04:42:56;;;;;;;;;;;6.90;99.90;;;;;;2068332;28;19932;-76
2024/03/15 04:43:57;;;;;;;;;;;6.90;99.90;;;;;;2068840;28;19925;-76
2024/03/15 04:45:03;;;;;;;;;;;6.90;99.90;;;;;;2073136;28;19916;-77
2024/03/15 04:46:04;;;;;;;;;;;6.90;99.90;;;;;;2065544;28;19968;-77
2024/03/15 04:47:07;;;;;;;;;;;6.90;99.90;;;;;;2068927;28;20347;-78
2024/03/15 04:48:09;;;;;;;;;;;6.90;99.90;;;;;;2068919;28;19952;-76
2024/03/15 04:49:09;;;;;;;;;;;6.90;99.90;;;;;;2068917;28;19917;-76
2024/03/15 04:50:09;;;;;;;;;;;6.90;99.90;;;;;;2065770;28;20004;-76
2024/03/15 04:51:10;;;;;;;;;;;6.90;99.90;;;;;;2067196;28;20359;-76
2024/03/15 04:52:12;;;;;;;;;;;6.90;99.90;;;;;;2068525;28;20344;-77
2024/03/15 04:53:12;;;;;;;;;;;6.90;99.90;;;;;;2069093;28;19936;-76
2024/03/15 04:54:13;;;;;;;;;;;6.90;99.90;;;;;;2068954;28;19917;-76
2024/03/15 04:55:14;;;;;;;;;;;6.90;99.90;;;;;;2067949;28;20234;-77
2024/03/15 04:56:14;;;;;;;;;;;6.90;99.90;;;;;;2067909;28;19917;-76
2024/03/15 04:57:16;;;;;;;;;;;6.90;99.90;;;;;;2068383;28;19922;-77
2024/03/15 04:58:16;;;;;;;;;;;6.90;99.90;;;;;;2068894;28;19944;-76
2024/03/15 04:59:17;;;;;;;;;;;6.90;99.90;;;;;;2069096;28;20007;-77
2024/03/15 05:00:18;;;;;;;;;;;6.90;99.90;;;;;;2067958;28;19952;-77
2024/03/15 05:01:19;;;;;;;;;;;6.90;99.90;;;;;;2068249;28;20347;-77
2024/03/15 05:02:19;;;;;;;;;;;6.90;99.90;;;;;;2068097;28;19925;-77
2024/03/15 05:03:20;;;;;;;;;;;7.00;99.90;;;;;;2067953;28;20024;-77
2024/03/15 05:04:20;;;;;;;;;;;6.90;99.90;;;;;;2068062;28;20155;-78
2024/03/15 05:05:21;;;;;;;;;;;7.00;99.90;;;;;;2068618;28;20012;-78
2024/03/15 05:06:25;;;;;;;;;;;6.90;99.90;;;;;;2067878;28;20371;-77
2024/03/15 05:07:25;;;;;;;;;;;7.00;99.90;;;;;;2068215;28;19929;-78
2024/03/15 05:08:27;;;;;;;;;;;7.00;99.90;;;;;;2068066;28;19917;-79
2024/03/15 05:09:29;;;;;;;;;;;7.00;99.90;;;;;;2068729;28;19913;-78
2024/03/15 05:10:29;;;;;;;;;;;6.90;99.90;;;;;;2067799;28;19918;-79
2024/03/15 05:11:29;;;;;;;;;;;7.00;99.90;;;;;;2056605;28;20368;-78
2024/03/15 05:12:30;;;;;;;;;;;7.00;99.90;;;;;;2067453;28;19953;-77
2024/03/15 05:13:30;;;;;;;;;;;7.00;99.90;;;;;;2076014;28;20317;-78
2024/03/15 05:14:31;;;;;;;;;;;7.00;99.90;;;;;;2068907;28;19972;-77
2024/03/15 05:15:33;;;;;;;;;;;7.00;99.90;;;;;;2068994;28;19921;-77
2024/03/15 05:16:34;;;;;;;;;;;7.00;99.90;;;;;;2068934;28;19957;-76
2024/03/15 05:17:34;;;;;;;;;;;7.00;99.90;;;;;;2067977;28;20327;-76
2024/03/15 05:18:35;;;;;;;;;;;7.00;99.90;;;;;;2068303;28;19913;-77
2024/03/15 05:19:36;;;;;;;;;;;7.00;99.90;;;;;;2068075;28;20279;-76
2024/03/15 05:20:39;;;;;;;;;;;7.00;99.90;;;;;;2059999;28;19917;-76
2024/03/15 05:21:40;;;;;;;;;;;7.00;99.90;;;;;;2068020;28;19917;-78
2024/03/15 05:22:43;;;;;;;;;;;7.00;99.90;;;;;;2069670;28;19913;-78
2024/03/15 05:23:44;;;;;;;;;;;7.00;99.90;;;;;;2067855;28;20299;-78
2024/03/15 05:24:45;;;;;;;;;;;7.00;99.90;;;;;;2067731;28;19929;-78
2024/03/15 05:25:46;;;;;;;;;;;7.00;99.90;;;;;;2067871;28;19953;-77
2024/03/15 05:26:47;;;;;;;;;;;7.00;99.90;;;;;;2068840;28;20027;-77
2024/03/15 05:27:49;;;;;;;;;;;7.00;99.90;;;;;;2067883;28;20373;-78
2024/03/15 05:28:50;;;;;;;;;;;7.10;99.90;;;;;;2067838;28;19914;-77
2024/03/15 05:29:50;;;;;;;;;;;7.10;99.90;;;;;;2068804;28;19914;-77
2024/03/15 05:30:51;;;;;;;;;;;7.10;99.90;;;;;;2067653;28;19913;-77
2024/03/15 05:31:52;;;;;;;;;;;7.10;99.90;;;;;;2063350;28;20221;-77
2024/03/15 05:32:52;;;;;;;;;;;7.10;99.90;;;;;;2068830;28;19921;-78
2024/03/15 05:33:52;;;;;;;;;;;7.10;99.90;;;;;;2067202;28;20506;-79
2024/03/15 05:34:53;;;;;;;;;;;7.10;99.90;;;;;;2059970;28;19976;-79
2024/03/15 05:35:54;;;;;;;;;;;7.10;99.90;;;;;;2068079;28;19952;-78
2024/03/15 05:36:54;;;;;;;;;;;7.10;99.90;;;;;;2075976;28;19917;-78
2024/03/15 05:37:55;;;;;;;;;;;7.20;99.90;;;;;;2067240;28;19923;-78
2024/03/15 05:38:55;;;;;;;;;;;7.20;99.90;;;;;;2067740;28;19936;-79
2024/03/15 05:39:56;;;;;;;;;;;7.20;99.90;;;;;;2067356;28;19948;-79
2024/03/15 05:40:57;;;;;;;;;;;7.20;99.90;;;;;;2067070;28;20069;-78
2024/03/15 05:41:58;;;;;;;;;;;7.20;99.90;;;;;;2068326;28;19925;-77
2024/03/15 05:42:58;;;;;;;;;;;7.30;99.90;;;;;;2066167;28;20440;-79
2024/03/15 05:43:59;;;;;;;;;;;7.30;99.90;;;;;;2067127;28;20500;-78
2024/03/15 05:44:59;;;;;;;;;;;7.30;99.90;;;;;;2068376;28;20015;-77
2024/03/15 05:46:00;;;;;;;;;;;7.30;99.90;;;;;;2068230;28;19961;-77
2024/03/15 05:47:00;;;;;;;;;;;7.30;99.90;;;;;;2068090;28;19972;-77
2024/03/15 05:48:01;;;;;;;;;;;7.30;99.90;;;;;;2067824;28;19917;-77
2024/03/15 05:49:01;;;;;;;;;;;7.30;99.90;;;;;;2068293;28;20295;-78
2024/03/15 05:50:04;;;;;;;;;;;7.30;99.90;;;;;;2068705;28;19967;-77
2024/03/15 05:51:04;;;;;;;;;;;7.30;99.90;;;;;;2068456;28;20364;-77
2024/03/15 05:52:10;;;;;;;;;;;7.40;99.90;;;;;;2067606;28;19921;-77
2024/03/15 05:53:11;;;;;;;;;;;7.40;99.90;;;;;;2067303;28;19922;-76
2024/03/15 05:54:12;;;;;;;;;;;7.40;99.90;;;;;;2059729;28;19917;-76
2024/03/15 05:55:13;;;;;;;;;;;7.40;99.90;;;;;;2066972;28;19920;-77
2024/03/15 05:56:14;;;;;;;;;;;7.40;99.90;;;;;;2074304;28;20042;-77
2024/03/15 05:57:15;;;;;;;;;;;7.50;99.90;;;;;;2075240;28;19940;-77
2024/03/15 05:58:15;;;;;;;;;;;7.50;99.90;;;;;;2068553;28;19967;-77
2024/03/15 05:59:16;;;;;;;;;;;7.50;99.90;;;;;;2068485;28;19933;-77
2024/03/15 06:00:19;;;;;;;;;;;7.50;99.90;;;;;;2068262;28;19967;-77